Time;durP1;ratioP1;P1;durP2;ratioP2;P2;SDS_P1;SDS_P2;PMS_P1;PMS_P2;Temp;Humidity;BMP_temperature;BMP_pressure;BME280_temperature;BME280_humidity;BME280_pressure;Samples;Min_cycle;Max_cycle;Signal;HPM_P1;HPM_P2
2023/11/22 00:01:18;;;;;;;20.83;19.63;;;;;;;;;;6303745;22;20582;-77
2023/11/22 00:03:47;;;;;;;20.73;19.52;;;;;;;;;;6304371;22;20198;-76
2023/11/22 00:06:14;;;;;;;20.85;19.75;;;;;;;;;;6304892;22;20189;-77
2023/11/22 00:08:41;;;;;;;20.23;19.13;;;;;;;;;;6305192;22;20182;-77
2023/11/22 00:11:09;;;;;;;20.13;19.13;;;;;;;;;;6303679;22;20282;-76
2023/11/22 00:13:36;;;;;;;21.05;19.83;;;;;;;;;;6304804;22;20205;-77
2023/11/22 00:16:03;;;;;;;20.63;19.52;;;;;;;;;;6305100;22;20242;-77
2023/11/22 00:18:30;;;;;;;21.30;20.15;;;;;;;;;;6304897;22;20189;-77
2023/11/22 00:20:59;;;;;;;21.80;20.50;;;;;;;;;;6303649;22;20186;-76
2023/11/22 00:23:29;;;;;;;22.05;20.75;;;;;;;;;;6304704;22;20520;-77
2023/11/22 00:25:57;;;;;;;22.27;20.90;;;;;;;;;;6304889;22;20219;-76
2023/11/22 00:28:24;;;;;;;22.52;21.23;;;;;;;;;;6304193;22;20210;-77
2023/11/22 00:30:51;;;;;;;22.00;20.70;;;;;;;;;;6303711;22;20194;-76
2023/11/22 00:33:19;;;;;;;22.67;21.38;;;;;;;;;;6303550;22;20208;-77
2023/11/22 00:35:46;;;;;;;22.98;21.48;;;;;;;;;;6304235;22;20227;-77
2023/11/22 00:38:14;;;;;;;22.83;21.50;;;;;;;;;;6304720;22;20178;-76
2023/11/22 00:40:41;;;;;;;22.90;21.50;;;;;;;;;;6303767;22;20182;-77
2023/11/22 00:43:08;;;;;;;24.02;22.42;;;;;;;;;;6303767;22;20206;-77
2023/11/22 00:45:36;;;;;;;23.85;22.35;;;;;;;;;;6304675;22;20182;-76
2023/11/22 00:48:03;;;;;;;24.20;22.60;;;;;;;;;;6304005;22;20251;-76
2023/11/22 00:50:30;;;;;;;24.45;22.85;;;;;;;;;;6303657;22;20182;-77
2023/11/22 00:52:57;;;;;;;24.55;22.92;;;;;;;;;;6303475;22;20198;-77
2023/11/22 00:55:26;;;;;;;25.58;23.98;;;;;;;;;;6303755;22;20318;-78
2023/11/22 00:57:53;;;;;;;25.85;23.90;;;;;;;;;;6304116;22;20236;-76
2023/11/22 01:00:20;;;;;;;25.33;23.13;;;;;;;;;;6303385;22;20182;-77
2023/11/22 01:02:47;;;;;;;24.88;23.27;;;;;;;;;;6303052;22;20248;-77
2023/11/22 01:05:15;;;;;;;24.60;23.10;;;;;;;;;;6303942;22;20186;-77
2023/11/22 01:07:42;;;;;;;24.55;23.13;;;;;;;;;;6304099;22;20578;-77
2023/11/22 01:10:10;;;;;;;29.52;23.70;;;;;;;;;;6303828;22;20181;-76
2023/11/22 01:12:38;;;;;;;25.10;23.20;;;;;;;;;;6303594;22;20550;-77
2023/11/22 01:15:06;;;;;;;25.20;23.50;;;;;;;;;;6304293;22;20209;-76
2023/11/22 01:17:34;;;;;;;24.80;23.13;;;;;;;;;;6304030;22;20170;-77
2023/11/22 01:20:01;;;;;;;24.85;23.10;;;;;;;;;;6303878;22;20182;-78
2023/11/22 01:22:28;;;;;;;27.77;25.83;;;;;;;;;;6303656;22;20185;-76
2023/11/22 01:24:55;;;;;;;25.38;23.77;;;;;;;;;;6303081;22;20225;-76
2023/11/22 01:27:23;;;;;;;25.55;23.67;;;;;;;;;;6303699;22;20185;-77
2023/11/22 01:29:54;;;;;;;23.90;22.40;;;;;;;;;;6303851;22;20187;-76
2023/11/22 01:32:21;;;;;;;25.25;23.65;;;;;;;;;;6303116;22;20190;-76
2023/11/22 01:34:48;;;;;;;26.60;24.50;;;;;;;;;;6303258;22;20244;-77
2023/11/22 01:37:15;;;;;;;24.83;23.25;;;;;;;;;;6304245;22;20182;-76
2023/11/22 01:39:43;;;;;;;25.33;23.58;;;;;;;;;;6304276;22;20189;-76
2023/11/22 01:42:10;;;;;;;25.48;23.88;;;;;;;;;;6303668;22;20182;-76
2023/11/22 01:44:37;;;;;;;24.48;22.88;;;;;;;;;;6303080;22;20281;-77
2023/11/22 01:47:06;;;;;;;24.77;23.27;;;;;;;;;;6303781;22;20182;-77
2023/11/22 01:49:33;;;;;;;26.05;24.25;;;;;;;;;;6303291;22;20182;-77
2023/11/22 01:52:00;;;;;;;25.38;23.77;;;;;;;;;;6302776;22;20647;-76
2023/11/22 01:54:28;;;;;;;25.33;23.63;;;;;;;;;;6302924;22;20287;-77
2023/11/22 01:56:55;;;;;;;24.42;22.92;;;;;;;;;;6304067;22;20193;-75
2023/11/22 01:59:22;;;;;;;25.10;23.40;;;;;;;;;;6303371;22;21003;-77
2023/11/22 02:01:50;;;;;;;25.15;23.33;;;;;;;;;;6303060;22;20182;-76
2023/11/22 02:04:19;;;;;;;27.30;25.20;;;;;;;;;;6303323;22;20194;-77
2023/11/22 02:06:46;;;;;;;25.88;24.15;;;;;;;;;;6302743;22;20182;-77
2023/11/22 02:09:15;;;;;;;24.60;22.65;;;;;;;;;;6303561;22;20184;-77
2023/11/22 02:11:45;;;;;;;26.40;24.40;;;;;;;;;;6302997;22;20178;-76
2023/11/22 02:14:12;;;;;;;25.60;23.50;;;;;;;;;;6302986;22;20198;-76
2023/11/22 02:16:40;;;;;;;26.15;24.45;;;;;;;;;;6302981;22;20178;-76
2023/11/22 02:19:07;;;;;;;25.65;23.90;;;;;;;;;;6303465;22;20185;-76
2023/11/22 02:21:36;;;;;;;23.38;21.80;;;;;;;;;;6303273;22;20201;-77
2023/11/22 02:24:04;;;;;;;25.15;23.45;;;;;;;;;;6303741;22;20527;-76
2023/11/22 02:26:31;;;;;;;26.15;24.38;;;;;;;;;;6302781;22;20186;-77
2023/11/22 02:28:58;;;;;;;26.65;24.88;;;;;;;;;;6303280;22;20181;-77
2023/11/22 02:31:27;;;;;;;25.77;24.02;;;;;;;;;;6302418;22;20197;-76
2023/11/22 02:33:55;;;;;;;25.25;23.65;;;;;;;;;;6302882;22;20660;-76
2023/11/22 02:36:24;;;;;;;24.65;23.00;;;;;;;;;;6302654;22;20272;-77
2023/11/22 02:38:52;;;;;;;26.42;24.20;;;;;;;;;;6303447;22;20239;-76
2023/11/22 02:41:20;;;;;;;24.50;22.90;;;;;;;;;;6302541;22;20550;-78
2023/11/22 02:43:47;;;;;;;25.20;23.55;;;;;;;;;;6303303;22;20224;-76
2023/11/22 02:46:14;;;;;;;24.33;22.60;;;;;;;;;;6303039;22;20178;-76
2023/11/22 02:48:41;;;;;;;24.92;23.23;;;;;;;;;;6303537;22;20628;-76
2023/11/22 02:51:08;;;;;;;26.25;24.35;;;;;;;;;;6302274;22;20181;-77
2023/11/22 02:53:35;;;;;;;25.58;24.00;;;;;;;;;;6302997;22;20202;-76
2023/11/22 02:56:02;;;;;;;26.38;24.48;;;;;;;;;;6303601;22;20178;-77
2023/11/22 02:58:31;;;;;;;24.35;22.70;;;;;;;;;;6302235;22;20193;-77
2023/11/22 03:00:58;;;;;;;24.88;23.38;;;;;;;;;;6302379;22;20182;-77
2023/11/22 03:03:25;;;;;;;25.42;23.63;;;;;;;;;;6303133;22;20208;-77
2023/11/22 03:05:52;;;;;;;25.60;24.00;;;;;;;;;;6303312;22;20174;-76
2023/11/22 03:08:19;;;;;;;23.48;21.90;;;;;;;;;;6302855;22;20554;-77
2023/11/22 03:10:46;;;;;;;24.33;22.73;;;;;;;;;;6302879;22;20190;-76
2023/11/22 03:13:13;;;;;;;24.23;22.73;;;;;;;;;;6303715;22;20198;-77
2023/11/22 03:15:42;;;;;;;24.75;22.95;;;;;;;;;;6304199;22;20182;-78
2023/11/22 03:18:10;;;;;;;25.33;23.63;;;;;;;;;;6304410;22;20217;-77
2023/11/22 03:20:37;;;;;;;25.13;23.42;;;;;;;;;;6305443;22;20174;-77
2023/11/22 03:23:05;;;;;;;25.50;23.75;;;;;;;;;;6305684;22;20640;-77
2023/11/22 03:25:32;;;;;;;23.65;22.10;;;;;;;;;;6306068;22;20194;-77
2023/11/22 03:27:59;;;;;;;25.00;23.35;;;;;;;;;;6305311;22;20178;-77
2023/11/22 03:30:26;;;;;;;25.13;23.40;;;;;;;;;;6304898;22;20185;-77
2023/11/22 03:32:55;;;;;;;24.75;22.83;;;;;;;;;;6305250;22;20185;-76
2023/11/22 03:35:22;;;;;;;24.38;22.67;;;;;;;;;;6305481;22;20209;-77
2023/11/22 03:37:49;;;;;;;26.20;24.33;;;;;;;;;;6305379;22;20189;-77
2023/11/22 03:40:16;;;;;;;24.38;22.77;;;;;;;;;;6304351;22;20658;-77
2023/11/22 03:42:43;;;;;;;26.00;24.30;;;;;;;;;;6305751;22;20564;-76
2023/11/22 03:45:12;;;;;;;24.85;23.33;;;;;;;;;;6305037;22;20679;-76
2023/11/22 03:47:39;;;;;;;25.20;23.40;;;;;;;;;;6304817;22;20182;-77
2023/11/22 03:50:09;;;;;;;26.10;24.00;;;;;;;;;;6303984;22;20212;-77
2023/11/22 03:52:37;;;;;;;25.25;23.48;;;;;;;;;;6305244;22;20188;-77
2023/11/22 03:55:05;;;;;;;25.08;23.38;;;;;;;;;;6305391;22;20228;-75
2023/11/22 03:57:32;;;;;;;25.15;23.42;;;;;;;;;;6304681;22;20183;-76
2023/11/22 03:59:59;;;;;;;25.23;23.13;;;;;;;;;;6304486;22;20209;-77
2023/11/22 04:02:27;;;;;;;24.38;22.77;;;;;;;;;;6304745;22;20174;-77
2023/11/22 04:04:54;;;;;;;26.90;24.80;;;;;;;;;;6305019;22;20561;-77
2023/11/22 04:07:23;;;;;;;25.48;23.73;;;;;;;;;;6305211;22;20265;-77
2023/11/22 04:09:50;;;;;;;27.30;25.35;;;;;;;;;;6304237;22;20189;-77
2023/11/22 04:12:16;;;;;;;25.42;23.63;;;;;;;;;;6303880;22;20167;-77
2023/11/22 04:14:43;;;;;;;25.33;23.63;;;;;;;;;;6304697;22;20208;-77
2023/11/22 04:17:11;;;;;;;24.83;23.23;;;;;;;;;;6304768;22;20182;-76
2023/11/22 04:19:38;;;;;;;25.33;23.73;;;;;;;;;;6304897;22;20185;-76
2023/11/22 04:22:05;;;;;;;25.83;23.83;;;;;;;;;;6303257;22;20182;-76
2023/11/22 04:24:34;;;;;;;24.42;22.77;;;;;;;;;;6304780;22;20505;-77
2023/11/22 04:27:02;;;;;;;27.13;25.20;;;;;;;;;;6304772;22;20186;-76
2023/11/22 04:29:29;;;;;;;26.10;24.40;;;;;;;;;;6304722;22;20179;-76
2023/11/22 04:31:56;;;;;;;27.40;25.17;;;;;;;;;;6303246;22;20189;-76
2023/11/22 04:34:23;;;;;;;26.10;24.27;;;;;;;;;;6304836;22;20265;-76
2023/11/22 04:36:51;;;;;;;24.63;23.02;;;;;;;;;;6304874;22;20186;-76
2023/11/22 04:39:18;;;;;;;25.75;24.05;;;;;;;;;;6304818;22;20205;-77
2023/11/22 04:41:46;;;;;;;25.40;23.55;;;;;;;;;;6303326;22;20209;-77
2023/11/22 04:44:13;;;;;;;26.08;24.25;;;;;;;;;;6304633;22;20228;-76
2023/11/22 04:46:40;;;;;;;25.10;23.55;;;;;;;;;;6304929;22;20178;-77
2023/11/22 04:49:08;;;;;;;24.55;22.83;;;;;;;;;;6304099;22;20182;-76
2023/11/22 04:51:35;;;;;;;26.20;23.90;;;;;;;;;;6303442;22;20214;-76
2023/11/22 04:54:02;;;;;;;26.15;24.15;;;;;;;;;;6303676;22;20682;-76
2023/11/22 04:56:29;;;;;;;25.08;23.38;;;;;;;;;;6303854;22;20647;-76
2023/11/22 04:58:58;;;;;;;25.00;23.35;;;;;;;;;;6304193;22;20189;-76
2023/11/22 05:01:26;;;;;;;24.95;23.25;;;;;;;;;;6303493;22;20182;-76
2023/11/22 05:03:53;;;;;;;26.45;24.55;;;;;;;;;;6303018;22;20202;-77
2023/11/22 05:06:20;;;;;;;25.13;23.42;;;;;;;;;;6304050;22;20770;-76
2023/11/22 05:08:47;;;;;;;25.80;24.00;;;;;;;;;;6303990;22;20186;-76
2023/11/22 05:11:15;;;;;;;26.85;24.75;;;;;;;;;;6302780;22;20183;-76
2023/11/22 05:13:43;;;;;;;26.40;24.63;;;;;;;;;;6303446;22;20205;-77
2023/11/22 05:16:11;;;;;;;27.10;25.00;;;;;;;;;;6304101;22;20225;-77
2023/11/22 05:18:38;;;;;;;25.45;23.75;;;;;;;;;;6304261;22;20185;-77
2023/11/22 05:21:06;;;;;;;26.38;24.65;;;;;;;;;;6303274;22;20186;-78
2023/11/22 05:23:33;;;;;;;28.10;25.90;;;;;;;;;;6303313;22;20209;-76
2023/11/22 05:26:00;;;;;;;25.75;23.98;;;;;;;;;;6304160;22;20214;-77
2023/11/22 05:28:28;;;;;;;28.80;26.65;;;;;;;;;;6304161;22;20201;-76
2023/11/22 05:30:55;;;;;;;25.80;24.00;;;;;;;;;;6303582;22;20284;-77
2023/11/22 05:33:23;;;;;;;26.80;25.00;;;;;;;;;;6303243;22;20209;-77
2023/11/22 05:35:50;;;;;;;25.98;24.23;;;;;;;;;;6303772;22;20261;-77
2023/11/22 05:38:17;;;;;;;26.02;23.55;;;;;;;;;;6303526;22;20721;-77
2023/11/22 05:40:45;;;;;;;26.38;24.48;;;;;;;;;;6302930;22;20185;-77
2023/11/22 05:43:12;;;;;;;25.75;23.77;;;;;;;;;;6304377;22;20303;-77
2023/11/22 05:45:39;;;;;;;24.58;22.88;;;;;;;;;;6303404;22;20178;-78
2023/11/22 05:48:06;;;;;;;25.70;23.33;;;;;;;;;;6304486;22;20174;-77
2023/11/22 05:50:35;;;;;;;26.38;24.40;;;;;;;;;;6303023;22;20182;-76
2023/11/22 05:53:02;;;;;;;25.15;23.35;;;;;;;;;;6303606;22;20170;-77
2023/11/22 05:55:29;;;;;;;25.58;23.80;;;;;;;;;;6303446;22;20233;-77
2023/11/22 05:57:56;;;;;;;27.23;25.08;;;;;;;;;;6304147;22;20640;-77
2023/11/22 06:00:23;;;;;;;26.05;24.10;;;;;;;;;;6303765;22;20182;-77
2023/11/22 06:02:51;;;;;;;26.75;24.75;;;;;;;;;;6304177;22;20189;-77
2023/11/22 06:05:18;;;;;;;28.05;26.00;;;;;;;;;;6303573;22;20277;-77
2023/11/22 06:07:47;;;;;;;26.92;25.13;;;;;;;;;;6304017;22;20261;-76
2023/11/22 06:10:15;;;;;;;27.70;25.40;;;;;;;;;;6303368;22;20213;-77
2023/11/22 06:12:43;;;;;;;25.92;24.13;;;;;;;;;;6303964;22;20423;-77
2023/11/22 06:15:11;;;;;;;26.35;24.52;;;;;;;;;;6303226;22;20209;-77
2023/11/22 06:17:38;;;;;;;23.38;21.55;;;;;;;;;;6304425;22;20166;-77
2023/11/22 06:20:06;;;;;;;26.45;24.55;;;;;;;;;;6303370;22;20182;-77
2023/11/22 06:22:33;;;;;;;27.02;24.90;;;;;;;;;;6303159;22;20652;-76
2023/11/22 06:25:02;;;;;;;26.90;24.95;;;;;;;;;;6303518;22;20198;-76
2023/11/22 06:27:29;;;;;;;26.77;24.98;;;;;;;;;;6303017;22;20186;-77
2023/11/22 06:29:57;;;;;;;26.10;24.35;;;;;;;;;;6303991;22;20183;-77
2023/11/22 06:32:24;;;;;;;26.65;24.58;;;;;;;;;;6302169;22;20208;-77
2023/11/22 06:34:52;;;;;;;25.50;23.70;;;;;;;;;;6303584;22;20209;-78
2023/11/22 06:37:19;;;;;;;24.67;22.90;;;;;;;;;;6302720;22;20225;-77
2023/11/22 06:39:46;;;;;;;25.80;23.92;;;;;;;;;;6303447;22;20213;-76
2023/11/22 06:42:14;;;;;;;23.73;22.10;;;;;;;;;;6302963;22;20186;-77
2023/11/22 06:44:42;;;;;;;25.25;23.15;;;;;;;;;;6303295;22;20772;-78
2023/11/22 06:47:09;;;;;;;24.15;22.55;;;;;;;;;;6303344;22;20179;-77
2023/11/22 06:49:36;;;;;;;24.30;22.70;;;;;;;;;;6303701;22;20209;-76
2023/11/22 06:52:03;;;;;;;25.02;23.33;;;;;;;;;;6303251;22;20654;-77
2023/11/22 06:54:31;;;;;;;28.20;25.55;;;;;;;;;;6305807;22;20528;-78
2023/11/22 06:56:58;;;;;;;27.55;25.38;;;;;;;;;;6305111;22;20208;-76
2023/11/22 06:59:26;;;;;;;26.92;24.90;;;;;;;;;;6306346;22;20182;-77
2023/11/22 07:01:53;;;;;;;27.20;25.30;;;;;;;;;;6305344;22;20187;-78
2023/11/22 07:04:21;;;;;;;27.98;25.98;;;;;;;;;;6305748;22;20198;-77
2023/11/22 07:06:48;;;;;;;29.58;27.27;;;;;;;;;;6305722;22;20190;-79
2023/11/22 07:09:15;;;;;;;32.58;29.48;;;;;;;;;;6307608;22;20218;-77
2023/11/22 07:11:43;;;;;;;26.73;24.65;;;;;;;;;;6307244;22;20182;-78
2023/11/22 07:14:11;;;;;;;26.50;24.30;;;;;;;;;;6311856;22;20202;-78
2023/11/22 07:16:39;;;;;;;28.50;26.38;;;;;;;;;;6312859;22;20236;-78
2023/11/22 07:19:06;;;;;;;23.33;21.73;;;;;;;;;;6309310;22;20209;-79
2023/11/22 07:21:37;;;;;;;26.23;24.42;;;;;;;;;;6310001;22;20210;-78
2023/11/22 07:24:06;;;;;;;25.50;23.60;;;;;;;;;;6310705;22;20802;-78
2023/11/22 07:26:34;;;;;;;24.33;22.73;;;;;;;;;;6310340;22;20221;-78
2023/11/22 07:29:01;;;;;;;24.92;23.23;;;;;;;;;;6310474;22;20188;-78
2023/11/22 07:31:29;;;;;;;24.30;22.60;;;;;;;;;;6310144;22;20178;-79
2023/11/22 07:33:57;;;;;;;27.35;24.80;;;;;;;;;;6310103;22;20198;-78
2023/11/22 07:36:24;;;;;;;25.02;23.42;;;;;;;;;;6310089;22;20206;-79
2023/11/22 07:38:53;;;;;;;24.60;23.00;;;;;;;;;;6308887;22;20507;-78
2023/11/22 07:41:21;;;;;;;24.17;22.48;;;;;;;;;;6309271;22;20186;-78
2023/11/22 07:43:48;;;;;;;24.50;22.67;;;;;;;;;;6309050;22;20229;-78
2023/11/22 07:46:17;;;;;;;24.85;22.95;;;;;;;;;;6308055;22;20178;-78
2023/11/22 07:48:46;;;;;;;23.30;21.70;;;;;;;;;;6306926;22;20269;-78
2023/11/22 07:51:16;;;;;;;22.90;21.40;;;;;;;;;;6306123;22;20647;-78
2023/11/22 07:53:44;;;;;;;23.75;22.05;;;;;;;;;;6307834;22;20202;-77
2023/11/22 07:56:11;;;;;;;23.98;22.38;;;;;;;;;;6308110;22;20190;-78
2023/11/22 07:58:38;;;;;;;23.67;22.08;;;;;;;;;;6307806;22;20186;-79
2023/11/22 08:01:06;;;;;;;22.90;21.40;;;;;;;;;;6309657;22;20173;-77
2023/11/22 08:03:34;;;;;;;22.45;20.95;;;;;;;;;;6307604;22;20281;-78
2023/11/22 08:06:02;;;;;;;24.17;22.45;;;;;;;;;;6307571;22;20174;-78
2023/11/22 08:08:31;;;;;;;22.92;21.42;;;;;;;;;;6307301;22;20257;-78
2023/11/22 08:10:58;;;;;;;25.13;23.30;;;;;;;;;;6307375;22;20172;-78
2023/11/22 08:13:25;;;;;;;25.63;23.92;;;;;;;;;;6309150;22;20202;-78
2023/11/22 08:15:52;;;;;;;24.85;22.92;;;;;;;;;;6308021;22;20193;-77
2023/11/22 08:18:19;;;;;;;24.90;23.10;;;;;;;;;;6307183;22;20181;-82
2023/11/22 08:20:46;;;;;;;22.73;21.27;;;;;;;;;;6306042;22;20189;-77
2023/11/22 08:23:14;;;;;;;25.70;23.80;;;;;;;;;;6308408;22;20592;-77
2023/11/22 08:25:43;;;;;;;25.48;23.27;;;;;;;;;;6306580;22;20174;-77
2023/11/22 08:28:10;;;;;;;24.40;22.70;;;;;;;;;;6306725;22;20182;-77
2023/11/22 08:30:37;;;;;;;25.00;23.23;;;;;;;;;;6304572;22;20182;-77
2023/11/22 08:33:04;;;;;;;23.20;21.65;;;;;;;;;;6306013;22;20182;-77
2023/11/22 08:35:32;;;;;;;22.50;21.00;;;;;;;;;;6306720;22;20522;-77
2023/11/22 08:38:00;;;;;;;23.65;21.95;;;;;;;;;;6306910;22;20182;-77
2023/11/22 08:40:28;;;;;;;24.50;22.80;;;;;;;;;;6307207;22;20507;-77
2023/11/22 08:42:56;;;;;;;23.77;22.30;;;;;;;;;;6306576;22;20194;-78
2023/11/22 08:45:23;;;;;;;24.10;22.60;;;;;;;;;;6307319;22;20500;-77
2023/11/22 08:47:51;;;;;;;24.10;22.48;;;;;;;;;;6306500;22;20181;-79
2023/11/22 08:50:18;;;;;;;21.60;20.30;;;;;;;;;;6308200;22;20185;-78
2023/11/22 08:52:46;;;;;;;21.17;19.80;;;;;;;;;;6307212;22;20235;-77
2023/11/22 08:55:14;;;;;;;21.38;20.05;;;;;;;;;;6307538;22;20174;-79
2023/11/22 08:57:42;;;;;;;21.20;19.90;;;;;;;;;;6306681;22;20277;-78
2023/11/22 09:00:11;;;;;;;22.88;21.27;;;;;;;;;;6305522;22;20182;-77
2023/11/22 09:02:38;;;;;;;21.15;19.77;;;;;;;;;;6307304;22;20201;-78
2023/11/22 09:05:08;;;;;;;22.27;20.98;;;;;;;;;;6307358;22;20202;-77
2023/11/22 09:07:35;;;;;;;22.42;21.13;;;;;;;;;;6306388;22;20174;-77
2023/11/22 09:10:09;;;;;;;22.30;21.10;;;;;;;;;;6307021;22;20482;-78
2023/11/22 09:12:36;;;;;;;22.80;21.42;;;;;;;;;;6306753;22;20217;-78
2023/11/22 09:15:03;;;;;;;22.00;20.67;;;;;;;;;;6306061;22;20202;-77
2023/11/22 09:17:32;;;;;;;22.35;20.95;;;;;;;;;;6306013;22;20639;-78
2023/11/22 09:20:00;;;;;;;22.40;21.00;;;;;;;;;;6306259;22;20200;-78
2023/11/22 09:22:27;;;;;;;22.27;20.95;;;;;;;;;;6306255;22;20209;-78
2023/11/22 09:24:54;;;;;;;22.27;20.88;;;;;;;;;;6306381;22;20206;-78
2023/11/22 09:27:21;;;;;;;22.92;21.45;;;;;;;;;;6306404;22;20162;-78
2023/11/22 09:29:49;;;;;;;22.98;21.50;;;;;;;;;;6306861;22;20181;-78
2023/11/22 09:32:16;;;;;;;21.65;20.45;;;;;;;;;;6305457;22;20671;-78
2023/11/22 09:34:45;;;;;;;21.45;20.15;;;;;;;;;;6306369;22;20222;-78
2023/11/22 09:37:12;;;;;;;23.73;22.23;;;;;;;;;;6306901;22;20664;-78
2023/11/22 09:39:39;;;;;;;22.98;21.48;;;;;;;;;;6307116;22;20183;-78
2023/11/22 09:42:06;;;;;;;22.58;21.27;;;;;;;;;;6306248;22;20262;-76
2023/11/22 09:44:33;;;;;;;22.98;21.58;;;;;;;;;;6306632;22;20198;-77
2023/11/22 09:47:04;;;;;;;23.00;21.50;;;;;;;;;;6305564;22;20182;-77
2023/11/22 09:49:31;;;;;;;23.35;21.90;;;;;;;;;;6306322;22;20181;-78
2023/11/22 09:52:04;;;;;;;22.70;21.27;;;;;;;;;;6304843;22;20261;-77
2023/11/22 09:54:33;;;;;;;23.55;22.02;;;;;;;;;;6305062;22;20972;-77
2023/11/22 09:57:02;;;;;;;21.67;20.15;;;;;;;;;;6305808;22;20289;-79
2023/11/22 09:59:30;;;;;;;23.48;21.98;;;;;;;;;;6306449;22;20182;-77
2023/11/22 10:01:59;;;;;;;21.67;20.40;;;;;;;;;;6305352;22;20186;-77
2023/11/22 10:04:28;;;;;;;22.67;21.17;;;;;;;;;;6306210;22;20209;-77
2023/11/22 10:06:56;;;;;;;21.63;20.33;;;;;;;;;;6305918;22;20182;-78
2023/11/22 10:09:24;;;;;;;22.77;21.30;;;;;;;;;;6305537;22;20186;-78
2023/11/22 10:11:51;;;;;;;23.35;21.85;;;;;;;;;;6305281;22;20185;-78
2023/11/22 10:14:24;;;;;;;23.60;22.10;;;;;;;;;;6305705;22;20482;-80
2023/11/22 10:16:59;;;;;;;24.25;22.70;;;;;;;;;;6304375;22;20239;-80
2023/11/22 10:19:26;;;;;;;23.20;21.70;;;;;;;;;;6308383;22;20184;-81
2023/11/22 10:22:04;;;;;;;23.70;22.20;;;;;;;;;;6306911;22;20181;-83
2023/11/22 10:24:33;;;;;;;23.05;21.45;;;;;;;;;;6307067;22;20278;-79
2023/11/22 10:27:00;;;;;;;23.15;21.70;;;;;;;;;;6307796;22;20512;-78
2023/11/22 10:29:27;;;;;;;23.42;21.92;;;;;;;;;;6308754;22;20181;-77
2023/11/22 10:31:54;;;;;;;24.15;22.75;;;;;;;;;;6305971;22;20741;-77
2023/11/22 10:34:22;;;;;;;24.80;23.30;;;;;;;;;;6307047;22;20895;-77
2023/11/22 10:36:49;;;;;;;23.95;22.55;;;;;;;;;;6305886;22;20198;-76
2023/11/22 10:39:20;;;;;;;25.10;23.60;;;;;;;;;;6306043;22;20182;-81
2023/11/22 10:41:51;;;;;;;24.23;22.77;;;;;;;;;;6305631;22;20681;-78
2023/11/22 10:44:21;;;;;;;23.35;21.83;;;;;;;;;;6307114;22;20198;-78
2023/11/22 10:46:48;;;;;;;23.45;22.08;;;;;;;;;;6309388;22;20159;-80
2023/11/22 10:49:15;;;;;;;22.17;20.95;;;;;;;;;;6309561;22;20174;-79
2023/11/22 10:51:46;;;;;;;22.33;20.85;;;;;;;;;;6306814;22;20182;-78
2023/11/22 10:54:13;;;;;;;23.73;22.33;;;;;;;;;;6308192;22;20663;-77
2023/11/22 10:56:42;;;;;;;24.55;23.15;;;;;;;;;;6307476;22;20198;-79
2023/11/22 10:59:14;;;;;;;23.50;22.10;;;;;;;;;;6308182;22;20220;-78
2023/11/22 11:01:45;;;;;;;22.15;20.85;;;;;;;;;;6307654;22;20182;-78
2023/11/22 11:04:17;;;;;;;23.95;22.45;;;;;;;;;;6307050;22;20202;-78
2023/11/22 11:06:46;;;;;;;24.55;22.98;;;;;;;;;;6306513;22;20162;-78
2023/11/22 11:09:15;;;;;;;24.33;22.70;;;;;;;;;;6305868;22;20499;-78
2023/11/22 11:11:42;;;;;;;23.83;22.25;;;;;;;;;;6307797;22;20553;-78
2023/11/22 11:14:11;;;;;;;23.48;21.70;;;;;;;;;;6307399;22;20206;-78
2023/11/22 11:16:41;;;;;;;24.02;22.42;;;;;;;;;;6308292;22;20190;-78
2023/11/22 11:19:09;;;;;;;22.88;21.38;;;;;;;;;;6327510;22;20198;-80
2023/11/22 11:21:36;;;;;;;22.25;20.85;;;;;;;;;;6314764;22;20178;-79
2023/11/22 11:24:04;;;;;;;23.85;22.23;;;;;;;;;;6314854;22;20209;-79
2023/11/22 11:26:34;;;;;;;21.73;20.35;;;;;;;;;;6313585;22;20208;-80
2023/11/22 11:29:02;;;;;;;22.00;20.70;;;;;;;;;;6311366;22;20269;-79
2023/11/22 11:31:35;;;;;;;21.73;20.42;;;;;;;;;;6310965;22;20209;-76
2023/11/22 11:34:06;;;;;;;22.80;21.20;;;;;;;;;;6313619;22;20205;-81
2023/11/22 11:36:34;;;;;;;23.35;21.85;;;;;;;;;;6313172;22;20211;-80
2023/11/22 11:39:02;;;;;;;24.02;22.42;;;;;;;;;;6313896;22;20519;-79
2023/11/22 11:41:32;;;;;;;22.92;21.42;;;;;;;;;;6312809;22;20218;-79
2023/11/22 11:43:59;;;;;;;22.95;21.45;;;;;;;;;;6312395;22;20224;-79
2023/11/22 11:46:27;;;;;;;22.83;21.23;;;;;;;;;;6311154;22;20265;-80
2023/11/22 11:48:55;;;;;;;23.90;22.00;;;;;;;;;;6308619;22;20189;-79
2023/11/22 11:51:24;;;;;;;24.90;23.30;;;;;;;;;;6312008;22;20185;-81
2023/11/22 11:53:51;;;;;;;23.38;21.75;;;;;;;;;;6312115;22;20186;-83
2023/11/22 11:56:18;;;;;;;23.65;22.15;;;;;;;;;;6311653;22;20190;-84
2023/11/22 11:58:47;;;;;;;23.65;22.05;;;;;;;;;;6312533;22;20178;-82
2023/11/22 12:01:14;;;;;;;23.52;22.10;;;;;;;;;;6311030;22;20205;-81
2023/11/22 12:03:41;;;;;;;23.40;21.88;;;;;;;;;;6313427;22;20208;-78
2023/11/22 12:06:09;;;;;;;23.55;21.98;;;;;;;;;;6313598;22;20178;-82
2023/11/22 12:37:39;;;;;;;23.52;21.98;;;;;;;;;;6310753;22;20228;-79
2023/11/22 12:40:13;;;;;;;24.10;22.67;;;;;;;;;;6315494;22;20178;-80
2023/11/22 12:42:50;;;;;;;24.75;23.15;;;;;;;;;;6316353;22;20170;-80
2023/11/22 12:45:23;;;;;;;23.88;22.38;;;;;;;;;;6309406;22;20170;-78
2023/11/22 12:47:50;;;;;;;24.02;22.63;;;;;;;;;;6309212;22;20194;-78
2023/11/22 12:50:35;;;;;;;24.10;22.60;;;;;;;;;;6307212;22;20182;-77
2023/11/22 12:53:11;;;;;;;25.00;23.50;;;;;;;;;;6308870;22;20182;-77
2023/11/22 12:55:39;;;;;;;24.10;22.70;;;;;;;;;;6309996;22;20223;-77
2023/11/22 12:58:07;;;;;;;23.42;22.02;;;;;;;;;;6314815;22;20226;-80
2023/11/22 13:00:35;;;;;;;24.30;22.90;;;;;;;;;;6316720;22;20232;-79
2023/11/22 13:03:02;;;;;;;23.90;22.30;;;;;;;;;;6315644;22;20174;-79
2023/11/22 13:05:29;;;;;;;23.33;21.93;;;;;;;;;;6315501;22;20174;-80
2023/11/22 13:07:56;;;;;;;23.92;22.50;;;;;;;;;;6315722;22;20421;-79
2023/11/22 13:10:25;;;;;;;24.23;22.73;;;;;;;;;;6314327;22;20181;-79
2023/11/22 13:12:54;;;;;;;24.23;22.73;;;;;;;;;;6316042;22;20184;-80
2023/11/22 13:15:23;;;;;;;23.20;21.80;;;;;;;;;;6314585;22;20182;-79
2023/11/22 13:17:50;;;;;;;24.50;23.00;;;;;;;;;;6314309;22;20190;-79
2023/11/22 13:20:19;;;;;;;24.33;22.83;;;;;;;;;;6310186;22;20196;-78
2023/11/22 13:22:47;;;;;;;26.02;24.33;;;;;;;;;;6310038;22;20175;-79
2023/11/22 13:25:17;;;;;;;26.40;24.50;;;;;;;;;;6314066;22;20185;-79
2023/11/22 13:27:49;;;;;;;24.83;23.33;;;;;;;;;;6313352;22;20524;-79
2023/11/22 13:30:19;;;;;;;25.90;24.20;;;;;;;;;;6313496;22;20169;-79
2023/11/22 13:32:46;;;;;;;24.35;22.95;;;;;;;;;;6313034;22;20216;-79
2023/11/22 13:35:15;;;;;;;24.57;23.13;;;;;;;;;;6313328;22;20181;-78
2023/11/22 13:37:44;;;;;;;26.48;24.17;;;;;;;;;;6310928;22;20531;-83
2023/11/22 13:40:14;;;;;;;25.98;24.25;;;;;;;;;;6312362;22;20177;-80
2023/11/22 13:42:42;;;;;;;25.48;23.88;;;;;;;;;;6312788;22;20174;-79
2023/11/22 13:45:10;;;;;;;25.40;23.80;;;;;;;;;;6313016;22;20177;-82
2023/11/22 13:47:37;;;;;;;26.38;24.77;;;;;;;;;;6315822;22;20194;-81
2023/11/22 13:50:05;;;;;;;25.35;23.75;;;;;;;;;;6314722;22;20186;-83
2023/11/22 13:52:32;;;;;;;26.63;24.92;;;;;;;;;;6315910;22;20281;-80
2023/11/22 13:55:00;;;;;;;27.37;25.67;;;;;;;;;;6312774;22;20189;-85
2023/11/22 13:57:27;;;;;;;27.17;25.48;;;;;;;;;;6310838;22;20444;-78
2023/11/22 13:59:55;;;;;;;26.05;24.35;;;;;;;;;;6311763;22;20174;-82
2023/11/22 14:02:23;;;;;;;26.08;24.30;;;;;;;;;;6314352;22;20181;-86
2023/11/22 14:04:50;;;;;;;24.33;22.85;;;;;;;;;;6312143;22;20186;-83
2023/11/22 14:07:17;;;;;;;29.13;27.13;;;;;;;;;;6312205;22;20190;-81
2023/11/22 14:09:46;;;;;;;25.83;24.07;;;;;;;;;;6311632;22;20182;-80
2023/11/22 14:12:13;;;;;;;26.40;24.45;;;;;;;;;;6315009;22;20434;-78
2023/11/22 14:14:40;;;;;;;26.23;24.42;;;;;;;;;;6309835;22;20186;-79
2023/11/22 14:17:07;;;;;;;27.42;25.52;;;;;;;;;;6311334;22;20202;-78
2023/11/22 14:19:36;;;;;;;26.10;24.40;;;;;;;;;;6311953;22;20170;-78
2023/11/22 14:22:03;;;;;;;27.45;25.65;;;;;;;;;;6310645;22;20615;-78
2023/11/22 14:24:36;;;;;;;27.20;25.40;;;;;;;;;;6307682;22;20174;-78
2023/11/22 14:27:03;;;;;;;26.23;24.42;;;;;;;;;;6305438;22;20227;-77
2023/11/22 14:29:31;;;;;;;25.10;23.52;;;;;;;;;;6305623;22;20253;-79
2023/11/22 14:31:58;;;;;;;26.80;25.00;;;;;;;;;;6305771;22;20231;-77
2023/11/22 14:34:25;;;;;;;24.50;23.00;;;;;;;;;;6309860;22;20221;-79
2023/11/22 14:36:54;;;;;;;25.88;23.88;;;;;;;;;;6311903;22;20210;-80
2023/11/22 14:39:23;;;;;;;26.92;25.27;;;;;;;;;;6314605;22;20162;-79
2023/11/22 14:41:51;;;;;;;24.50;23.00;;;;;;;;;;6311671;22;20181;-78
2023/11/22 14:44:18;;;;;;;25.70;24.00;;;;;;;;;;6305534;22;20182;-78
2023/11/22 14:46:46;;;;;;;24.05;22.55;;;;;;;;;;6305969;22;20186;-78
2023/11/22 14:49:14;;;;;;;24.70;23.20;;;;;;;;;;6314181;22;20181;-81